Time;durP1;ratioP1;P1;durP2;ratioP2;P2;SDS_P1;SDS_P2;PMS_P1;PMS_P2;Temp;Humidity;BMP_temperature;BMP_pressure;BME280_temperature;BME280_humidity;BME280_pressure;Samples;Min_cycle;Max_cycle;Signal;HPM_P1;HPM_P2
2021/03/24 00:04:31;;;;;;;40.47;30.50;;;;;;;4.38;100.00;101593.66;10423467;28;20045;-71
2021/03/24 00:09:32;;;;;;;44.75;32.38;;;;;;;4.29;100.00;101596.28;10422804;28;20045;-71
2021/03/24 00:14:34;;;;;;;40.30;30.40;;;;;;;4.48;100.00;101648.44;10438980;28;20052;-71
2021/03/24 00:19:35;;;;;;;45.08;30.52;;;;;;;4.26;100.00;101630.22;10422115;28;20041;-71
2021/03/24 00:24:39;;;;;;;42.85;29.33;;;;;;;4.14;100.00;101625.88;10438814;28;20091;-71
2021/03/24 00:29:40;;;;;;;50.90;34.22;;;;;;;4.11;100.00;101623.28;10421783;28;20048;-71
2021/03/24 00:34:43;;;;;;;43.15;31.98;;;;;;;4.01;100.00;101611.16;10422634;28;20168;-70
2021/03/24 00:39:44;;;;;;;48.72;34.53;;;;;;;3.50;100.00;101557.31;10421456;28;20045;-71
2021/03/24 00:44:45;;;;;;;48.90;33.22;;;;;;;3.37;100.00;101575.53;10438855;28;20037;-72
2021/03/24 00:49:47;;;;;;;40.10;31.08;;;;;;;3.49;100.00;101599.88;10421627;28;20046;-72
2021/03/24 00:55:07;;;;;;;47.15;33.60;;;;;;;3.39;100.00;101584.22;10421677;28;20052;-72
2021/03/24 01:00:13;;;;;;;47.47;34.70;;;;;;;2.78;100.00;101530.31;10420887;28;20042;-71
2021/03/24 01:05:18;;;;;;;49.97;35.80;;;;;;;2.75;100.00;101557.22;10436713;28;20099;-72
2021/03/24 01:10:26;;;;;;;43.67;32.42;;;;;;;3.17;100.00;101595.50;10420363;28;20095;-71
2021/03/24 01:15:27;;;;;;;49.60;32.80;;;;;;;3.13;100.00;101591.13;10437798;28;20056;-71
2021/03/24 01:20:31;;;;;;;44.20;30.85;;;;;;;3.33;100.00;101614.59;10455021;28;20088;-72
2021/03/24 01:25:33;;;;;;;45.03;29.35;;;;;;;3.46;100.00;101631.09;10445472;28;20041;-71
2021/03/24 01:30:35;;;;;;;37.72;26.42;;;;;;;3.40;100.00;101622.44;10440480;28;20042;-72
2021/03/24 01:35:36;;;;;;;40.05;26.35;;;;;;;3.23;100.00;101605.03;10419771;28;20041;-72
2021/03/24 01:40:44;;;;;;;36.60;26.27;;;;;;;3.16;100.00;101608.50;10441183;28;20366;-72
2021/03/24 01:45:45;;;;;;;38.33;27.73;;;;;;;2.74;100.00;101563.28;10460694;28;20045;-71
2021/03/24 01:50:47;;;;;;;35.63;24.60;;;;;;;2.43;100.00;101554.47;10455637;28;20053;-71
2021/03/24 01:55:51;;;;;;;30.00;22.90;;;;;;;2.42;100.00;101575.31;10459922;28;20066;-71
2021/03/24 02:00:52;;;;;;;34.00;24.42;;;;;;;2.50;100.00;101587.47;10460006;28;20165;-71
2021/03/24 02:05:55;;;;;;;32.92;24.00;;;;;;;2.49;100.00;101596.13;10459533;28;20045;-71
2021/03/24 02:11:13;;;;;;;38.47;25.83;;;;;;;2.08;100.00;101548.25;10459660;28;20442;-71
2021/03/24 02:16:22;;;;;;;34.60;25.60;;;;;;;1.84;100.00;101544.63;10446674;28;20033;-71
2021/03/24 02:21:28;;;;;;;43.50;30.02;;;;;;;2.07;100.00;101577.72;10458660;28;20056;-71
2021/03/24 02:26:35;;;;;;;42.83;29.33;;;;;;;2.05;100.00;101588.09;10457481;28;20056;-71
2021/03/24 02:31:37;;;;;;;40.70;25.83;;;;;;;2.14;100.00;101602.88;10459015;28;20045;-71
2021/03/24 02:36:39;;;;;;;41.35;28.95;;;;;;;2.14;100.00;101621.06;10458794;28;20048;-71
2021/03/24 02:41:41;;;;;;;39.22;26.15;;;;;;;2.17;100.00;101623.69;10458747;28;20052;-71
2021/03/24 02:46:43;;;;;;;36.08;24.55;;;;;;;2.16;100.00;101617.63;10458030;28;20048;-70
2021/03/24 02:51:45;;;;;;;37.33;28.02;;;;;;;1.41;100.00;101540.03;10464050;28;20037;-71
2021/03/24 02:56:47;;;;;;;43.67;30.67;;;;;;;1.25;100.00;101535.56;10466104;28;20124;-71
2021/03/24 03:02:14;;;;;;;47.25;31.48;;;;;;;1.03;100.00;101542.25;10467523;28;20099;-71
2021/03/24 03:07:23;;;;;;;35.65;25.77;;;;;;;1.34;100.00;101588.41;10466161;28;20125;-71
2021/03/24 03:12:51;;;;;;;47.33;30.67;;;;;;;1.77;100.00;101627.72;10466256;28;20520;-71
2021/03/24 03:17:59;;;;;;;51.58;31.90;;;;;;;1.73;100.00;101621.66;10465911;28;20040;-71
2021/03/24 03:23:10;;;;;;;48.83;29.70;;;;;;;1.23;100.00;101578.78;10466679;28;20120;-71
2021/03/24 03:28:16;;;;;;;43.83;29.80;;;;;;;1.28;100.00;101598.72;10464899;28;20102;-71
2021/03/24 03:33:24;;;;;;;44.78;29.17;;;;;;;1.33;100.00;101615.25;10465445;28;20053;-71
2021/03/24 03:38:28;;;;;;;45.70;29.83;;;;;;;1.53;100.00;101639.63;10465468;28;20047;-71
2021/03/24 03:43:31;;;;;;;43.90;28.05;;;;;;;1.65;100.00;101651.00;10448471;28;20045;-72
2021/03/24 03:48:33;;;;;;;39.42;27.42;;;;;;;1.63;100.00;101655.31;10464440;28;20056;-71
2021/03/24 03:53:48;;;;;;;43.90;28.10;;;;;;;1.63;100.00;101656.19;10465272;28;20044;-71
2021/03/24 03:59:08;;;;;;;;;;;;;;;1.65;100.00;101658.81;10465239;28;20466;-71
2021/03/24 04:04:35;;;;;;;44.63;30.92;;;;;;;1.62;100.00;101650.97;10463756;28;20353;-71
2021/03/24 04:09:39;;;;;;;45.10;27.85;;;;;;;1.24;100.00;101615.16;10463182;28;20037;-71
2021/03/24 04:14:42;;;;;;;46.50;30.35;;;;;;;1.32;100.00;101633.38;10446948;28;20045;-71
2021/03/24 04:19:47;;;;;;;47.45;29.52;;;;;;;1.33;100.00;101632.53;10463010;28;20060;-71
2021/03/24 04:24:50;;;;;;;;;;;;;;;1.31;100.00;101635.09;10464785;28;20041;-71
2021/03/24 04:29:59;;;;;;;44.17;27.33;;;;;;;1.34;100.00;101644.66;10462697;28;19955;-71
2021/03/24 04:35:00;;;;;;;39.30;25.58;;;;;;;1.45;100.00;101661.19;10462641;28;20056;-71
2021/03/24 04:40:31;;;;;;;46.08;29.60;;;;;;;1.45;100.00;101649.09;10462590;28;20041;-71
2021/03/24 04:45:39;;;;;;;47.50;29.30;;;;;;;1.06;100.00;101621.00;10459306;28;20056;-71
2021/03/24 04:50:52;;;;;;;44.03;28.50;;;;;;;0.84;100.00;101615.56;10462659;28;20048;-71
2021/03/24 04:55:56;;;;;;;45.85;29.42;;;;;;;0.90;100.00;101621.69;10461862;28;20045;-70
2021/03/24 05:01:12;;;;;;;52.23;31.07;;;;;;;0.99;100.00;101639.09;10462754;28;20371;-71
2021/03/24 05:06:23;;;;;;;;;;;;;;;0.82;100.00;101632.84;10462520;28;20049;-71
2021/03/24 05:11:28;;;;;;;44.33;26.92;;;;;;;1.09;100.00;101675.50;10460212;28;20368;-71
2021/03/24 05:16:37;;;;;;;45.92;28.30;;;;;;;1.05;100.00;101662.50;10421663;28;20048;-71
2021/03/24 05:22:06;;;;;;;44.22;28.70;;;;;;;1.19;100.00;101684.28;10420772;28;20050;-71
2021/03/24 05:27:29;;;;;;;49.45;29.27;;;;;;;1.02;100.00;101662.47;10418953;28;20049;-71
2021/03/24 05:32:37;;;;;;;50.92;30.30;;;;;;;0.87;100.00;101657.09;10420233;28;20037;-71
2021/03/24 05:37:39;;;;;;;46.92;30.15;;;;;;;1.03;100.00;101678.06;10419479;28;20076;-71
2021/03/24 05:42:57;;;;;;;46.67;29.98;;;;;;;1.10;100.00;101689.38;10473573;28;20053;-71
2021/03/24 05:48:21;;;;;;;46.75;28.35;;;;;;;0.64;100.00;101642.13;10460489;28;20037;-71
2021/03/24 05:53:29;;;;;;;49.55;30.05;;;;;;;0.73;100.00;101668.19;10460390;28;20049;-71
2021/03/24 05:59:19;;;;;;;53.50;30.75;;;;;;;0.75;100.00;101673.41;10441225;28;20095;-70
2021/03/24 06:04:44;;;;;;;50.90;29.70;;;;;;;1.07;100.00;101697.13;10417646;28;20055;-71
2021/03/24 06:09:52;;;;;;;51.58;32.00;;;;;;;0.99;100.00;101694.44;10417207;28;20048;-71
2021/03/24 06:15:00;;;;;;;49.60;29.83;;;;;;;1.15;100.00;101716.25;10434877;28;20116;-71
2021/03/24 06:20:38;;;;;;;52.05;31.30;;;;;;;1.52;100.00;101746.97;10417711;28;20111;-71
2021/03/24 06:25:51;;;;;;;49.65;28.90;;;;;;;2.26;100.00;101779.72;10402699;28;20061;-71
2021/03/24 06:31:32;;;;;;;45.78;29.30;;;;;;;2.86;100.00;101794.03;10418452;28;20042;-71
2021/03/24 06:37:23;;;;;;;47.53;30.30;;;;;;;3.23;100.00;101787.31;10388414;28;20045;-71
2021/03/24 06:42:55;;;;;;;41.40;27.65;;;;;;;3.96;100.00;101814.47;10411398;28;20060;-71
2021/03/24 06:48:19;;;;;;;45.35;29.70;;;;;;;4.37;100.00;101800.63;10417139;28;20047;-70
2021/03/24 06:53:48;;;;;;;43.88;27.15;;;;;;;4.79;100.00;101803.22;10437979;28;20053;-72
2021/03/24 06:59:11;;;;;;;41.67;28.50;;;;;;;4.58;100.00;101751.91;10446732;28;20037;-72
2021/03/24 07:04:46;;;;;;;42.28;29.30;;;;;;;5.18;100.00;101815.34;10458037;28;20049;-72
2021/03/24 07:10:01;;;;;;;42.50;28.45;;;;;;;5.28;100.00;101784.78;10436348;28;20076;-72
2021/03/24 07:15:16;;;;;;;46.63;29.70;;;;;;;5.66;100.00;101811.66;10427572;28;20057;-71
2021/03/24 07:20:26;;;;;;;45.75;32.30;;;;;;;5.70;100.00;101781.13;10432133;28;20414;-71
2021/03/24 07:25:53;;;;;;;44.08;30.50;;;;;;;6.26;100.00;101820.06;10416021;28;20046;-71
2021/03/24 07:31:13;;;;;;;36.75;27.10;;;;;;;7.35;96.75;101872.34;10416396;28;20045;-71
2021/03/24 07:36:39;;;;;;;38.00;27.85;;;;;;;7.07;93.26;101774.78;10400368;28;20069;-71
2021/03/24 07:42:12;;;;;;;39.45;29.58;;;;;;;7.80;91.46;101835.06;10424301;28;20041;-71
2021/03/24 07:47:33;;;;;;;37.28;28.42;;;;;;;7.29;90.59;101750.06;10423634;28;20049;-71
2021/03/24 07:52:59;;;;;;;34.70;24.90;;;;;;;9.19;87.01;101880.22;10424482;28;20041;-71
2021/03/24 07:58:15;;;;;;;42.33;27.63;;;;;;;9.51;83.63;101836.63;10423699;28;20486;-72
2021/03/24 08:03:23;;;;;;;37.30;28.27;;;;;;;10.19;80.71;101849.22;10406013;28;20451;-71
2021/03/24 08:08:34;;;;;;;34.35;26.27;;;;;;;10.93;78.79;101857.09;10422670;28;20051;-71
2021/03/24 08:13:57;;;;;;;39.55;30.80;;;;;;;11.35;76.13;101852.44;10421915;28;20045;-71
2021/03/24 08:18:58;;;;;;;40.42;28.58;;;;;;;11.77;75.05;101843.34;10438285;28;20052;-71
2021/03/24 08:24:09;;;;;;;35.30;27.42;;;;;;;11.91;75.02;101827.06;10435084;28;20049;-71
2021/03/24 08:29:25;;;;;;;36.75;29.25;;;;;;;12.19;75.24;101863.22;10448875;28;20056;-71
2021/03/24 08:34:58;;;;;;;40.35;28.52;;;;;;;12.47;72.40;101816.50;10422717;28;20068;-71
2021/03/24 08:40:02;;;;;;;36.28;29.77;;;;;;;12.31;72.91;101805.56;10420946;28;20041;-71
2021/03/24 08:45:14;;;;;;;36.20;28.48;;;;;;;12.85;71.96;101792.28;10422374;28;20104;-71
2021/03/24 08:50:32;;;;;;;34.53;27.38;;;;;;;12.85;73.13;101812.56;10430942;28;20041;-71
2021/03/24 08:55:36;;;;;;;39.53;30.27;;;;;;;12.93;71.80;101761.13;10434887;28;20053;-71
2021/03/24 09:00:55;;;;;;;37.83;26.58;;;;;;;13.58;71.60;101791.44;10437456;28;20041;-71
2021/03/24 09:06:19;;;;;;;37.63;28.20;;;;;;;13.18;70.52;101715.31;10420249;28;20043;-71
2021/03/24 09:11:53;;;;;;;39.43;29.40;;;;;;;14.92;67.05;101818.69;10442365;28;20140;-71
2021/03/24 09:17:13;;;;;;;39.20;32.33;;;;;;;14.81;66.27;101747.50;10417884;28;20061;-71
2021/03/24 09:22:30;;;;;;;39.00;27.60;;;;;;;13.60;69.45;101700.44;10420104;28;20164;-71
2021/03/24 09:28:27;;;;;;;40.83;30.67;;;;;;;15.57;66.20;101808.81;10435302;28;20052;-70
2021/03/24 09:33:31;;;;;;;42.65;33.05;;;;;;;15.90;63.31;101762.88;10397573;28;20049;-71
2021/03/24 09:38:37;;;;;;;40.35;29.13;;;;;;;15.73;61.06;101688.44;10434741;28;20628;-70
2021/03/24 09:43:44;;;;;;;33.65;25.75;;;;;;;15.97;62.02;101697.03;10419644;28;20072;-72
2021/03/24 09:48:52;;;;;;;37.58;26.55;;;;;;;16.28;61.02;101691.03;10419231;28;20453;-71
2021/03/24 09:54:06;;;;;;;33.60;25.95;;;;;;;17.16;56.57;101691.69;10419163;28;20082;-71
2021/03/24 09:59:28;;;;;;;36.50;27.23;;;;;;;18.54;51.63;101619.69;10418299;28;20043;-71
2021/03/24 10:04:40;;;;;;;31.58;23.75;;;;;;;19.78;50.72;101734.84;10441109;28;20048;-71
2021/03/24 10:09:59;;;;;;;29.50;24.25;;;;;;;21.05;47.30;101688.66;10433586;28;20124;-71
2021/03/24 10:15:09;;;;;;;30.88;23.13;;;;;;;22.30;45.84;101709.00;10417701;28;20049;-72
2021/03/24 10:20:30;;;;;;;28.77;21.75;;;;;;;19.85;47.97;101519.50;10418267;28;20033;-71
2021/03/24 10:25:39;;;;;;;28.58;21.10;;;;;;;21.41;46.46;101642.31;10458674;28;20063;-71
2021/03/24 10:31:12;;;;;;;31.40;23.60;;;;;;;22.02;45.51;101634.22;10441656;28;20371;-70
2021/03/24 10:36:45;;;;;;;31.02;22.88;;;;;;;22.38;44.56;101625.19;10417435;28;20056;-71
2021/03/24 10:42:01;;;;;;;33.63;25.77;;;;;;;21.35;48.14;101672.22;10416964;28;20053;-71
2021/03/24 10:47:21;;;;;;;31.58;24.85;;;;;;;20.39;48.12;101555.88;10417944;28;20042;-71
2021/03/24 10:52:27;;;;;;;34.92;27.00;;;;;;;19.27;48.06;101397.81;10416659;28;20054;-71
2021/03/24 10:57:31;;;;;;;35.03;25.13;;;;;;;20.27;49.99;101617.38;10430280;28;20099;-71
2021/03/24 11:03:03;;;;;;;35.30;27.83;;;;;;;19.67;49.11;101537.66;10417432;28;20045;-72
2021/03/24 11:08:11;;;;;;;37.90;27.60;;;;;;;21.17;46.50;101585.13;10415961;28;20382;-70
2021/03/24 11:13:20;;;;;;;33.80;24.42;;;;;;;21.63;46.36;101665.72;10439035;28;20049;-72
2021/03/24 11:18:40;;;;;;;34.38;24.13;;;;;;;20.72;46.95;101504.41;10423927;28;20048;-71
2021/03/24 11:23:46;;;;;;;37.80;26.50;;;;;;;20.80;46.95;101519.94;10424393;28;20061;-72
2021/03/24 11:28:48;;;;;;;34.35;26.00;;;;;;;21.24;46.35;101564.94;10423981;28;20049;-71
2021/03/24 11:33:54;;;;;;;32.65;23.98;;;;;;;22.95;43.40;101619.75;10424741;28;20045;-70
2021/03/24 11:39:27;;;;;;;40.17;28.60;;;;;;;20.74;46.49;101461.47;10439389;28;20038;-71
2021/03/24 11:44:30;;;;;;;40.72;28.55;;;;;;;21.56;44.36;101439.19;10423078;28;20058;-71
2021/03/24 11:49:58;;;;;;;38.10;28.65;;;;;;;22.10;45.38;101589.72;10439605;28;20033;-71
2021/03/24 11:55:02;;;;;;;35.55;24.58;;;;;;;20.82;47.41;101552.81;10423114;28;20053;-72
2021/03/24 12:00:28;;;;;;;33.92;25.40;;;;;;;22.85;43.72;101614.25;10423778;28;20387;-71
2021/03/24 12:05:43;;;;;;;36.42;27.08;;;;;;;19.70;48.15;101393.06;10438762;28;20520;-71
2021/03/24 12:11:00;;;;;;;34.00;25.60;;;;;;;21.34;44.29;101433.78;10422304;28;20046;-71
2021/03/24 12:16:06;;;;;;;35.47;25.63;;;;;;;22.09;43.71;101444.94;10422824;28;20049;-71
2021/03/24 12:21:28;;;;;;;32.38;24.95;;;;;;;23.82;41.34;101560.53;10423040;28;20400;-72
2021/03/24 12:26:34;;;;;;;39.33;25.15;;;;;;;22.02;43.57;101395.38;10422417;28;20402;-71
2021/03/24 12:31:49;;;;;;;37.22;26.92;;;;;;;21.27;44.20;101320.78;10422898;28;20103;-72
2021/03/24 12:36:54;;;;;;;35.38;26.05;;;;;;;20.94;45.48;101336.75;10421040;28;20055;-71
2021/03/24 12:42:18;;;;;;;33.45;23.88;;;;;;;20.11;47.61;101371.44;10437588;28;20041;-71
2021/03/24 12:47:26;;;;;;;34.58;25.48;;;;;;;19.60;47.96;101299.28;10421187;28;20057;-72
2021/03/24 12:52:35;;;;;;;38.13;26.35;;;;;;;19.05;49.17;101278.22;10437886;28;20474;-72
2021/03/24 12:57:51;;;;;;;33.47;25.20;;;;;;;20.50;47.97;101450.72;10420507;28;20144;-72
2021/03/24 13:03:28;;;;;;;34.78;23.77;;;;;;;20.31;47.22;101431.56;10421376;28;20052;-71
2021/03/24 13:08:53;;;;;;;29.08;22.92;;;;;;;19.68;48.35;101339.72;10389233;28;20123;-71
2021/03/24 13:14:26;;;;;;;35.97;26.05;;;;;;;19.59;47.79;101318.09;10436425;28;20462;-73
2021/03/24 13:19:44;;;;;;;32.72;23.98;;;;;;;18.50;50.32;101275.72;10419667;28;20048;-72
2021/03/24 13:25:03;;;;;;;28.27;19.85;;;;;;;20.54;47.48;101440.63;10435883;28;20056;-71
2021/03/24 13:30:15;;;;;;;23.65;18.30;;;;;;;20.73;46.58;101356.16;10419611;28;20044;-71
2021/03/24 13:35:23;;;;;;;19.95;16.02;;;;;;;19.96;46.38;101281.59;10418888;28;20052;-71
2021/03/24 13:40:31;;;;;;;22.80;16.50;;;;;;;20.24;47.28;101317.88;10419267;28;20044;-72
2021/03/24 13:45:39;;;;;;;23.83;17.02;;;;;;;19.60;47.53;101274.38;10435521;28;20045;-72
2021/03/24 13:50:44;;;;;;;24.77;16.13;;;;;;;19.34;47.85;101260.16;10435326;28;20060;-71
2021/03/24 13:56:09;;;;;;;22.60;16.00;;;;;;;19.32;48.45;101268.31;10419129;28;20034;-72
2021/03/24 14:01:22;;;;;;;;;;;;;;;19.66;47.63;101298.03;10435270;28;20041;-71
2021/03/24 14:06:26;;;;;;;22.08;16.83;;;;;;;19.24;47.64;101245.75;10418655;28;19925;-72
2021/03/24 14:11:38;;;;;;;18.23;14.50;;;;;;;18.97;47.75;101212.94;10434424;28;20057;-71
2021/03/24 14:16:44;;;;;;;22.73;17.23;;;;;;;19.06;48.36;101241.69;10433644;28;20117;-72
2021/03/24 14:22:19;;;;;;;21.13;16.08;;;;;;;18.87;49.99;101234.94;10434161;28;20099;-72
2021/03/24 14:27:23;;;;;;;22.38;15.63;;;;;;;18.35;48.84;101151.34;10417355;28;20481;-71
2021/03/24 14:32:32;;;;;;;20.40;14.95;;;;;;;18.45;49.39;101198.66;10418704;28;20061;-71
2021/03/24 14:37:34;;;;;;;22.05;16.55;;;;;;;18.21;49.75;101170.97;10417332;28;20096;-72
2021/03/24 14:42:47;;;;;;;20.83;16.42;;;;;;;17.83;50.90;101168.16;10418171;28;20124;-72
2021/03/24 14:48:02;;;;;;;22.83;17.08;;;;;;;17.75;50.96;101197.13;10416894;28;20045;-72
2021/03/24 14:53:22;;;;;;;22.10;16.02;;;;;;;17.86;51.39;101202.63;10433562;28;20060;-71
2021/03/24 14:58:24;;;;;;;30.92;20.02;;;;;;;17.75;52.82;101216.63;10416989;28;20360;-71
2021/03/24 15:03:27;;;;;;;25.63;18.52;;;;;;;17.62;51.86;101199.72;10433321;28;20060;-71
2021/03/24 15:08:47;;;;;;;30.47;19.67;;;;;;;17.63;52.54;101230.75;10416763;28;20037;-71
2021/03/24 15:13:51;;;;;;;27.58;20.33;;;;;;;17.74;51.81;101219.41;10416233;28;20053;-71
2021/03/24 15:19:09;;;;;;;;;;;;;;;17.68;51.42;101191.31;10433190;28;20038;-71
2021/03/24 15:24:32;;;;;;;31.25;20.88;;;;;;;17.53;51.31;101178.97;10416772;28;20343;-71
2021/03/24 15:29:42;;;;;;;27.27;20.75;;;;;;;17.24;52.84;101156.00;10416604;28;20088;-71
2021/03/24 15:35:09;;;;;;;34.17;23.42;;;;;;;17.04;54.00;101162.56;10432431;28;20056;-71
2021/03/24 15:40:22;;;;;;;28.98;21.27;;;;;;;16.80;54.13;101156.09;10415058;28;20463;-71
2021/03/24 15:45:43;;;;;;;28.35;22.27;;;;;;;16.81;54.64;101185.28;10416103;28;20099;-71
2021/03/24 15:50:49;;;;;;;30.45;21.83;;;;;;;16.87;55.39;101189.38;10416709;28;20466;-71
2021/03/24 15:55:54;;;;;;;28.83;20.00;;;;;;;16.72;55.59;101171.69;10416253;28;20057;-71
2021/03/24 16:01:39;;;;;;;32.75;19.98;;;;;;;17.01;55.85;101216.84;10437950;28;20045;-71
2021/03/24 16:07:04;;;;;;;29.40;19.85;;;;;;;16.59;56.72;101174.16;10331704;28;20059;-71
2021/03/24 16:12:41;;;;;;;27.70;19.98;;;;;;;16.31;58.04;101180.31;10423586;28;20069;-71
2021/03/24 16:17:59;;;;;;;30.52;19.33;;;;;;;15.90;59.82;101174.72;10422771;28;20042;-71
2021/03/24 16:23:03;;;;;;;26.83;17.95;;;;;;;15.92;58.87;101179.00;10422729;28;20045;-71
2021/03/24 16:28:26;;;;;;;28.85;19.65;;;;;;;15.79;59.48;101190.41;10437526;28;20080;-71
2021/03/24 16:33:51;;;;;;;29.88;20.65;;;;;;;15.49;60.60;101177.00;10422296;28;20056;-71
2021/03/24 16:39:30;;;;;;;27.42;19.35;;;;;;;15.45;60.24;101194.91;10420534;28;20053;-71
2021/03/24 16:44:56;;;;;;;27.88;18.33;;;;;;;15.27;60.93;101187.09;10421937;28;20119;-71
2021/03/24 16:50:35;;;;;;;30.30;20.05;;;;;;;15.35;58.96;101204.31;10420583;28;20049;-71
2021/03/24 16:55:38;;;;;;;26.95;19.40;;;;;;;15.45;58.46;101208.19;10421312;28;20034;-71
2021/03/24 17:00:45;;;;;;;29.27;19.80;;;;;;;15.10;60.19;101193.31;10437799;28;20041;-71
2021/03/24 17:06:27;;;;;;;27.38;19.50;;;;;;;15.00;61.23;101208.88;10421000;28;20509;-71
2021/03/24 17:11:55;;;;;;;27.55;18.63;;;;;;;14.79;61.75;101196.75;10420616;28;20053;-71
2021/03/24 17:17:04;;;;;;;29.27;20.23;;;;;;;14.78;60.71;101197.69;10420377;28;20455;-71
2021/03/24 17:22:22;;;;;;;28.20;19.80;;;;;;;14.78;60.55;101219.75;10436364;28;20045;-71
2021/03/24 17:27:37;;;;;;;28.25;20.00;;;;;;;14.56;61.53;101197.06;10418881;28;20047;-71
2021/03/24 17:32:42;;;;;;;;;;;;;;;14.31;62.79;101198.25;10419820;28;20041;-71
2021/03/24 17:38:16;;;;;;;32.42;23.20;;;;;;;14.00;64.30;101193.63;10434793;28;19929;-71
2021/03/24 17:43:43;;;;;;;29.08;21.13;;;;;;;13.65;66.22;101191.81;10419598;28;20120;-71
2021/03/24 17:49:05;;;;;;;32.85;24.13;;;;;;;13.38;66.80;101198.44;10419064;28;20053;-71
2021/03/24 17:54:33;;;;;;;32.38;22.48;;;;;;;13.11;68.19;101197.88;10426090;28;20474;-71
2021/03/24 18:00:16;;;;;;;29.13;22.25;;;;;;;12.95;68.68;101212.72;10459913;28;20044;-72
2021/03/24 18:05:23;;;;;;;28.88;21.50;;;;;;;12.82;68.84;101225.59;10440347;28;20469;-71
2021/03/24 18:10:30;;;;;;;32.85;22.23;;;;;;;12.70;69.27;101231.44;10437938;28;20052;-72
2021/03/24 18:15:41;;;;;;;28.52;19.40;;;;;;;12.40;69.01;101228.28;10446542;28;20048;-71
2021/03/24 18:20:54;;;;;;;26.52;19.90;;;;;;;12.28;69.98;101234.97;10448815;28;20056;-72
2021/03/24 18:26:13;;;;;;;27.75;19.10;;;;;;;12.17;70.67;101239.81;10417314;28;20043;-72
2021/03/24 18:31:26;;;;;;;31.55;24.42;;;;;;;12.02;71.94;101254.50;10418332;28;20107;-71
2021/03/24 18:36:30;;;;;;;37.00;25.52;;;;;;;11.64;72.05;101231.34;10426124;28;20044;-71
2021/03/24 18:41:35;;;;;;;29.20;19.83;;;;;;;11.22;73.35;101208.28;10457929;28;20382;-72
2021/03/24 18:46:41;;;;;;;27.42;19.83;;;;;;;11.01;75.27;101225.78;10457896;28;20431;-72
2021/03/24 18:51:51;;;;;;;25.50;17.58;;;;;;;10.54;77.90;101197.63;10424725;28;20048;-72
2021/03/24 18:56:55;;;;;;;24.33;16.05;;;;;;;10.33;81.07;101222.91;10410198;28;20050;-70
2021/03/24 19:02:13;;;;;;;26.67;17.55;;;;;;;10.25;81.77;101238.09;10432469;28;20112;-71
2021/03/24 19:07:19;;;;;;;29.85;18.10;;;;;;;10.16;82.66;101257.66;10416690;28;20455;-70
2021/03/24 19:12:21;;;;;;;27.50;18.13;;;;;;;9.99;83.08;101256.47;10416821;28;20045;-71
2021/03/24 19:17:40;;;;;;;23.55;16.73;;;;;;;9.58;85.74;101240.19;10432238;28;20071;-71
2021/03/24 19:22:46;;;;;;;29.67;18.60;;;;;;;9.44;87.94;101260.78;10416996;28;20037;-71
2021/03/24 19:27:55;;;;;;;27.77;17.02;;;;;;;9.33;89.46;101273.34;10415486;28;20049;-72
2021/03/24 19:33:22;;;;;;;27.17;18.08;;;;;;;9.37;90.23;101303.94;10420086;28;20041;-71
2021/03/24 19:38:27;;;;;;;;;;;;;;;9.17;90.96;101293.97;10439906;28;20157;-71
2021/03/24 19:43:31;;;;;;;30.48;18.67;;;;;;;9.13;92.19;101319.44;10440078;28;19928;-71
2021/03/24 19:48:33;;;;;;;30.13;17.73;;;;;;;9.18;91.26;101332.50;10462331;28;20041;-72
2021/03/24 19:53:34;;;;;;;29.17;19.00;;;;;;;9.07;91.51;101324.03;10422117;28;20054;-72
2021/03/24 19:58:47;;;;;;;29.20;18.50;;;;;;;9.02;92.03;101326.78;10423424;28;20064;-72
2021/03/24 20:03:56;;;;;;;28.75;19.17;;;;;;;9.07;92.51;101345.03;10439089;28;20378;-72
2021/03/24 20:09:05;;;;;;;24.88;16.55;;;;;;;8.84;92.91;101332.50;10421406;28;20045;-71
2021/03/24 20:14:20;;;;;;;27.83;17.80;;;;;;;8.79;93.75;101336.16;10438881;28;20406;-71
2021/03/24 20:19:23;;;;;;;31.02;18.77;;;;;;;8.72;93.22;101322.28;10442638;28;20045;-71
2021/03/24 20:24:27;;;;;;;24.75;16.33;;;;;;;8.67;93.56;101339.94;10439025;28;20049;-71
2021/03/24 20:29:33;;;;;;;29.98;17.25;;;;;;;8.45;95.11;101326.50;10437488;28;20041;-72
2021/03/24 20:34:46;;;;;;;26.63;16.05;;;;;;;7.94;96.60;101282.16;10474249;28;20056;-72
2021/03/24 20:40:33;;;;;;;30.08;16.17;;;;;;;7.53;100.00;101277.78;10462338;28;20416;-71
2021/03/24 20:45:42;;;;;;;29.55;16.27;;;;;;;7.42;100.00;101299.88;10437934;28;20054;-71
2021/03/24 20:50:47;;;;;;;30.98;19.60;;;;;;;7.81;100.00;101343.63;10419979;28;20052;-71
2021/03/24 20:55:50;;;;;;;29.90;18.45;;;;;;;8.22;100.00;101368.97;10420332;28;20057;-71
2021/03/24 21:00:52;;;;;;;28.83;18.73;;;;;;;8.16;98.89;101360.38;10430960;28;20128;-71
2021/03/24 21:05:54;;;;;;;26.45;17.45;;;;;;;7.98;99.30;101349.38;10460277;28;20036;-72
2021/03/24 21:10:57;;;;;;;30.95;20.45;;;;;;;8.30;97.58;101393.28;10445466;28;20041;-71
2021/03/24 21:15:59;;;;;;;32.33;21.05;;;;;;;8.57;94.84;101407.59;10433648;28;20053;-72
2021/03/24 21:21:05;;;;;;;30.40;19.80;;;;;;;8.59;92.78;101397.06;10435478;28;20044;-71
2021/03/24 21:26:11;;;;;;;29.15;19.05;;;;;;;8.45;91.35;101375.50;10419571;28;20065;-72
2021/03/24 21:31:13;;;;;;;28.88;19.20;;;;;;;8.33;91.56;101360.88;10418868;28;20049;-71
2021/03/24 21:36:15;;;;;;;27.75;18.52;;;;;;;8.13;92.03;101345.53;10419258;28;20049;-71
2021/03/24 21:41:24;;;;;;;33.47;20.27;;;;;;;8.23;92.25;101356.72;10419186;28;20064;-72
2021/03/24 21:46:42;;;;;;;29.08;19.88;;;;;;;8.45;91.58;101379.00;10429495;28;20115;-72
2021/03/24 21:51:44;;;;;;;33.83;21.90;;;;;;;8.44;90.74;101365.91;10434404;28;20049;-71
2021/03/24 21:56:57;;;;;;;30.80;20.35;;;;;;;8.47;90.00;101363.19;10433137;28;20096;-72
2021/03/24 22:02:08;;;;;;;31.73;20.92;;;;;;;8.49;89.94;101367.50;10417811;28;20049;-71
2021/03/24 22:07:10;;;;;;;28.20;19.90;;;;;;;8.35;89.37;101343.34;10417749;28;20065;-72
2021/03/24 22:12:12;;;;;;;28.38;18.58;;;;;;;8.45;89.66;101357.13;10436015;28;20106;-72
2021/03/24 22:17:50;;;;;;;31.70;21.10;;;;;;;8.59;88.56;101362.91;10449215;28;20057;-71
2021/03/24 22:22:53;;;;;;;29.92;20.50;;;;;;;8.31;88.44;101332.03;10479959;28;20139;-72
2021/03/24 22:28:16;;;;;;;29.08;19.63;;;;;;;8.26;89.54;101340.91;10471582;28;20052;-71
2021/03/24 22:33:31;;;;;;;31.08;19.85;;;;;;;8.28;89.39;101339.97;10484696;28;20044;-71
2021/03/24 22:38:42;;;;;;;27.35;17.52;;;;;;;8.23;89.33;101340.97;10487066;28;20047;-71
2021/03/24 22:43:46;;;;;;;27.13;19.42;;;;;;;7.96;89.42;101311.81;10449645;28;20060;-71
2021/03/24 22:49:09;;;;;;;29.40;19.88;;;;;;;7.43;91.39;101276.25;10437281;28;20040;-72
2021/03/24 22:54:24;;;;;;;27.77;18.58;;;;;;;7.28;93.76;101284.41;10478310;28;20141;-71
2021/03/24 22:59:34;;;;;;;26.80;17.77;;;;;;;7.52;94.12;101322.41;10461006;28;20166;-72
2021/03/24 23:04:46;;;;;;;26.35;17.70;;;;;;;7.47;93.17;101311.13;10421438;28;20417;-72
2021/03/24 23:09:51;;;;;;;27.92;18.75;;;;;;;7.46;93.27;101317.25;10440178;28;20503;-72
2021/03/24 23:15:09;;;;;;;26.42;17.10;;;;;;;7.36;93.06;101311.34;10416943;28;20049;-71
2021/03/24 23:20:16;;;;;;;28.40;17.75;;;;;;;7.15;93.55;101294.28;10442001;28;20366;-71
2021/03/24 23:25:21;;;;;;;26.70;17.58;;;;;;;7.12;94.30;101296.09;10456492;28;20041;-72
2021/03/24 23:30:24;;;;;;;28.45;18.58;;;;;;;6.91;95.23;101286.88;10457727;28;20064;-72
2021/03/24 23:35:28;;;;;;;29.48;18.77;;;;;;;6.87;96.70;101295.66;10466162;28;20044;-71